sensor_id;sensor_type;location;lat;lon;timestamp;temperature;humidity
32394;DHT22;18853;45.426;9.206;2023-02-15T00:01:43;13.80;43.80
32394;DHT22;18853;45.426;9.206;2023-02-15T00:04:12;13.80;43.90
32394;DHT22;18853;45.426;9.206;2023-02-15T00:06:38;13.70;44.00
32394;DHT22;18853;45.426;9.206;2023-02-15T00:09:04;13.70;44.10
32394;DHT22;18853;45.426;9.206;2023-02-15T00:11:30;13.70;44.20
32394;DHT22;18853;45.426;9.206;2023-02-15T00:14:13;13.70;44.30
32394;DHT22;18853;45.426;9.206;2023-02-15T00:16:41;13.70;44.50
32394;DHT22;18853;45.426;9.206;2023-02-15T00:19:08;13.60;44.40
32394;DHT22;18853;45.426;9.206;2023-02-15T00:21:35;13.60;44.50
32394;DHT22;18853;45.426;9.206;2023-02-15T00:24:02;13.60;44.50
32394;DHT22;18853;45.426;9.206;2023-02-15T00:26:28;13.60;44.50
32394;DHT22;18853;45.426;9.206;2023-02-15T00:28:55;13.60;44.60
32394;DHT22;18853;45.426;9.206;2023-02-15T00:31:21;13.50;44.60
32394;DHT22;18853;45.426;9.206;2023-02-15T00:33:47;13.50;44.70
32394;DHT22;18853;45.426;9.206;2023-02-15T00:36:13;13.50;44.70
32394;DHT22;18853;45.426;9.206;2023-02-15T00:38:39;13.50;44.80
32394;DHT22;18853;45.426;9.206;2023-02-15T00:41:06;13.50;44.90
32394;DHT22;18853;45.426;9.206;2023-02-15T00:43:33;13.50;44.90
32394;DHT22;18853;45.426;9.206;2023-02-15T00:45:59;13.50;44.90
32394;DHT22;18853;45.426;9.206;2023-02-15T00:48:25;13.50;45.00
32394;DHT22;18853;45.426;9.206;2023-02-15T00:50:56;13.50;45.00
32394;DHT22;18853;45.426;9.206;2023-02-15T00:53:23;13.50;45.20
32394;DHT22;18853;45.426;9.206;2023-02-15T00:55:49;13.50;45.20
32394;DHT22;18853;45.426;9.206;2023-02-15T00:58:15;13.50;45.20
32394;DHT22;18853;45.426;9.206;2023-02-15T01:00:44;13.50;45.20
32394;DHT22;18853;45.426;9.206;2023-02-15T01:03:10;13.50;45.30
32394;DHT22;18853;45.426;9.206;2023-02-15T01:05:36;13.40;45.30
32394;DHT22;18853;45.426;9.206;2023-02-15T01:08:02;13.40;45.30
32394;DHT22;18853;45.426;9.206;2023-02-15T01:10:29;13.40;45.60
32394;DHT22;18853;45.426;9.206;2023-02-15T01:12:55;13.40;45.80
32394;DHT22;18853;45.426;9.206;2023-02-15T01:15:22;13.30;46.00
32394;DHT22;18853;45.426;9.206;2023-02-15T01:17:48;13.30;46.20
32394;DHT22;18853;45.426;9.206;2023-02-15T01:20:21;13.30;46.30
32394;DHT22;18853;45.426;9.206;2023-02-15T01:22:47;13.20;46.40
32394;DHT22;18853;45.426;9.206;2023-02-15T01:25:16;13.20;46.50
32394;DHT22;18853;45.426;9.206;2023-02-15T01:27:42;13.20;46.80
32394;DHT22;18853;45.426;9.206;2023-02-15T01:30:08;13.20;47.20
32394;DHT22;18853;45.426;9.206;2023-02-15T01:32:34;13.20;47.60
32394;DHT22;18853;45.426;9.206;2023-02-15T01:35:00;13.10;47.90
32394;DHT22;18853;45.426;9.206;2023-02-15T01:37:26;13.10;48.00
32394;DHT22;18853;45.426;9.206;2023-02-15T01:39:51;13.10;48.10
32394;DHT22;18853;45.426;9.206;2023-02-15T01:42:23;13.10;48.10
32394;DHT22;18853;45.426;9.206;2023-02-15T01:44:53;13.10;48.10
32394;DHT22;18853;45.426;9.206;2023-02-15T01:47:40;13.00;48.10
32394;DHT22;18853;45.426;9.206;2023-02-15T01:50:15;13.00;48.20
32394;DHT22;18853;45.426;9.206;2023-02-15T01:55:40;12.90;48.20
32394;DHT22;18853;45.426;9.206;2023-02-15T01:58:08;12.90;48.20
32394;DHT22;18853;45.426;9.206;2023-02-15T02:00:35;12.90;48.10
32394;DHT22;18853;45.426;9.206;2023-02-15T02:03:01;12.90;48.10
32394;DHT22;18853;45.426;9.206;2023-02-15T02:05:29;12.90;48.10
32394;DHT22;18853;45.426;9.206;2023-02-15T02:07:57;12.80;48.10
32394;DHT22;18853;45.426;9.206;2023-02-15T02:10:24;12.80;48.10
32394;DHT22;18853;45.426;9.206;2023-02-15T02:12:54;12.80;48.00
32394;DHT22;18853;45.426;9.206;2023-02-15T02:35:10;12.80;47.60
32394;DHT22;18853;45.426;9.206;2023-02-15T02:37:49;12.70;47.60
32394;DHT22;18853;45.426;9.206;2023-02-15T02:40:37;12.80;47.50
32394;DHT22;18853;45.426;9.206;2023-02-15T02:46:00;12.80;47.40
32394;DHT22;18853;45.426;9.206;2023-02-15T02:48:30;12.70;47.30
32394;DHT22;18853;45.426;9.206;2023-02-15T02:50:57;12.60;47.30
32394;DHT22;18853;45.426;9.206;2023-02-15T02:53:23;12.60;47.30
32394;DHT22;18853;45.426;9.206;2023-02-15T02:56:12;12.60;47.20
32394;DHT22;18853;45.426;9.206;2023-02-15T02:58:47;12.60;47.20
32394;DHT22;18853;45.426;9.206;2023-02-15T03:01:42;12.60;47.30
32394;DHT22;18853;45.426;9.206;2023-02-15T03:04:13;12.50;47.20
32394;DHT22;18853;45.426;9.206;2023-02-15T03:06:42;12.50;47.40
32394;DHT22;18853;45.426;9.206;2023-02-15T03:12:11;12.50;47.40
32394;DHT22;18853;45.426;9.206;2023-02-15T03:14:38;12.40;47.40
32394;DHT22;18853;45.426;9.206;2023-02-15T03:17:05;12.40;47.40
32394;DHT22;18853;45.426;9.206;2023-02-15T03:19:34;12.30;47.50
32394;DHT22;18853;45.426;9.206;2023-02-15T03:22:07;12.30;47.60
32394;DHT22;18853;45.426;9.206;2023-02-15T03:24:43;12.30;47.70
32394;DHT22;18853;45.426;9.206;2023-02-15T03:27:16;12.20;47.70
32394;DHT22;18853;45.426;9.206;2023-02-15T03:29:46;12.30;47.90
32394;DHT22;18853;45.426;9.206;2023-02-15T03:32:14;12.20;47.80
32394;DHT22;18853;45.426;9.206;2023-02-15T03:34:41;12.20;47.90
32394;DHT22;18853;45.426;9.206;2023-02-15T03:37:27;12.10;47.90
32394;DHT22;18853;45.426;9.206;2023-02-15T03:43:06;12.10;48.20
32394;DHT22;18853;45.426;9.206;2023-02-15T03:45:34;12.00;48.20
32394;DHT22;18853;45.426;9.206;2023-02-15T03:48:01;12.00;48.30
32394;DHT22;18853;45.426;9.206;2023-02-15T03:50:31;11.90;48.20
32394;DHT22;18853;45.426;9.206;2023-02-15T03:53:18;11.90;48.20
32394;DHT22;18853;45.426;9.206;2023-02-15T03:55:50;11.90;48.30
32394;DHT22;18853;45.426;9.206;2023-02-15T03:58:18;11.90;48.40
32394;DHT22;18853;45.426;9.206;2023-02-15T04:01:34;11.80;48.50
32394;DHT22;18853;45.426;9.206;2023-02-15T04:04:22;11.80;48.50
32394;DHT22;18853;45.426;9.206;2023-02-15T04:06:48;11.80;48.50
32394;DHT22;18853;45.426;9.206;2023-02-15T04:09:14;11.90;48.50
32394;DHT22;18853;45.426;9.206;2023-02-15T04:11:58;11.90;48.40
32394;DHT22;18853;45.426;9.206;2023-02-15T04:14:24;11.90;48.40
32394;DHT22;18853;45.426;9.206;2023-02-15T04:17:08;11.90;48.30
32394;DHT22;18853;45.426;9.206;2023-02-15T04:19:34;11.90;48.30
32394;DHT22;18853;45.426;9.206;2023-02-15T04:22:19;11.90;48.20
32394;DHT22;18853;45.426;9.206;2023-02-15T04:25:03;11.90;48.30
32394;DHT22;18853;45.426;9.206;2023-02-15T04:27:44;11.80;48.20
32394;DHT22;18853;45.426;9.206;2023-02-15T04:30:11;11.80;48.20
32394;DHT22;18853;45.426;9.206;2023-02-15T04:32:38;11.80;48.20
32394;DHT22;18853;45.426;9.206;2023-02-15T04:35:05;11.80;48.20
32394;DHT22;18853;45.426;9.206;2023-02-15T04:37:31;11.80;48.20
32394;DHT22;18853;45.426;9.206;2023-02-15T04:39:57;11.80;48.20
32394;DHT22;18853;45.426;9.206;2023-02-15T04:42:26;11.70;48.20
32394;DHT22;18853;45.426;9.206;2023-02-15T04:44:52;11.70;48.20
32394;DHT22;18853;45.426;9.206;2023-02-15T04:47:18;11.70;48.20
32394;DHT22;18853;45.426;9.206;2023-02-15T04:49:44;11.60;48.30
32394;DHT22;18853;45.426;9.206;2023-02-15T04:52:10;11.70;48.40
32394;DHT22;18853;45.426;9.206;2023-02-15T04:54:36;11.60;48.50
32394;DHT22;18853;45.426;9.206;2023-02-15T04:57:03;11.50;48.50
32394;DHT22;18853;45.426;9.206;2023-02-15T04:59:29;11.50;48.60
32394;DHT22;18853;45.426;9.206;2023-02-15T05:01:55;11.50;48.60
32394;DHT22;18853;45.426;9.206;2023-02-15T05:04:20;11.50;48.60
32394;DHT22;18853;45.426;9.206;2023-02-15T05:06:46;11.50;48.70
32394;DHT22;18853;45.426;9.206;2023-02-15T05:09:12;11.50;48.80
32394;DHT22;18853;45.426;9.206;2023-02-15T05:11:38;11.50;48.70
32394;DHT22;18853;45.426;9.206;2023-02-15T05:14:03;11.50;48.70
32394;DHT22;18853;45.426;9.206;2023-02-15T05:16:29;11.50;48.60
32394;DHT22;18853;45.426;9.206;2023-02-15T05:18:55;11.50;48.70
32394;DHT22;18853;45.426;9.206;2023-02-15T05:21:21;11.50;48.70
32394;DHT22;18853;45.426;9.206;2023-02-15T05:23:46;11.40;48.60
32394;DHT22;18853;45.426;9.206;2023-02-15T05:26:15;11.40;48.70
32394;DHT22;18853;45.426;9.206;2023-02-15T05:29:00;11.40;48.60
32394;DHT22;18853;45.426;9.206;2023-02-15T05:31:25;11.40;48.70
32394;DHT22;18853;45.426;9.206;2023-02-15T05:33:51;11.40;48.60
32394;DHT22;18853;45.426;9.206;2023-02-15T05:36:17;11.40;48.60
32394;DHT22;18853;45.426;9.206;2023-02-15T05:38:42;11.40;48.60
32394;DHT22;18853;45.426;9.206;2023-02-15T05:41:10;11.40;48.60
32394;DHT22;18853;45.426;9.206;2023-02-15T05:43:36;11.40;48.50
32394;DHT22;18853;45.426;9.206;2023-02-15T05:46:03;11.40;48.50
32394;DHT22;18853;45.426;9.206;2023-02-15T05:48:29;11.40;48.50
32394;DHT22;18853;45.426;9.206;2023-02-15T05:53:31;11.40;48.50
32394;DHT22;18853;45.426;9.206;2023-02-15T05:55:57;11.40;48.40
32394;DHT22;18853;45.426;9.206;2023-02-15T05:58:29;11.40;48.50
32394;DHT22;18853;45.426;9.206;2023-02-15T06:00:55;11.40;48.50
32394;DHT22;18853;45.426;9.206;2023-02-15T06:03:21;11.40;48.50
32394;DHT22;18853;45.426;9.206;2023-02-15T06:05:47;11.40;48.40
32394;DHT22;18853;45.426;9.206;2023-02-15T06:08:12;11.40;48.40
32394;DHT22;18853;45.426;9.206;2023-02-15T06:10:38;11.40;48.40
32394;DHT22;18853;45.426;9.206;2023-02-15T06:13:06;11.40;48.50
32394;DHT22;18853;45.426;9.206;2023-02-15T06:15:31;11.40;48.50
32394;DHT22;18853;45.426;9.206;2023-02-15T06:17:58;11.40;48.60
32394;DHT22;18853;45.426;9.206;2023-02-15T06:20:23;11.40;48.50
32394;DHT22;18853;45.426;9.206;2023-02-15T06:22:49;11.40;48.50
32394;DHT22;18853;45.426;9.206;2023-02-15T06:25:15;11.40;48.40
32394;DHT22;18853;45.426;9.206;2023-02-15T06:27:42;11.30;48.20
32394;DHT22;18853;45.426;9.206;2023-02-15T06:30:08;11.30;48.30
32394;DHT22;18853;45.426;9.206;2023-02-15T06:32:34;11.20;48.30
32394;DHT22;18853;45.426;9.206;2023-02-15T06:35:00;11.10;48.30
32394;DHT22;18853;45.426;9.206;2023-02-15T06:37:26;11.00;48.40
32394;DHT22;18853;45.426;9.206;2023-02-15T06:39:52;11.00;48.40
32394;DHT22;18853;45.426;9.206;2023-02-15T06:42:18;11.00;48.80
32394;DHT22;18853;45.426;9.206;2023-02-15T06:44:44;11.00;49.10
32394;DHT22;18853;45.426;9.206;2023-02-15T06:47:10;10.90;49.50
32394;DHT22;18853;45.426;9.206;2023-02-15T06:49:36;10.90;49.90
32394;DHT22;18853;45.426;9.206;2023-02-15T06:52:03;10.90;50.00
32394;DHT22;18853;45.426;9.206;2023-02-15T06:54:28;11.00;50.00
32394;DHT22;18853;45.426;9.206;2023-02-15T06:56:54;11.00;49.70
32394;DHT22;18853;45.426;9.206;2023-02-15T06:59:20;11.00;49.60
32394;DHT22;18853;45.426;9.206;2023-02-15T07:01:45;11.00;49.60
32394;DHT22;18853;45.426;9.206;2023-02-15T07:04:11;11.00;49.80
32394;DHT22;18853;45.426;9.206;2023-02-15T07:06:37;11.00;49.70
32394;DHT22;18853;45.426;9.206;2023-02-15T07:09:03;11.00;49.70
32394;DHT22;18853;45.426;9.206;2023-02-15T07:11:29;11.00;49.70
32394;DHT22;18853;45.426;9.206;2023-02-15T07:14:13;11.00;49.80
32394;DHT22;18853;45.426;9.206;2023-02-15T07:16:39;10.90;49.90
32394;DHT22;18853;45.426;9.206;2023-02-15T07:19:05;10.90;49.90
32394;DHT22;18853;45.426;9.206;2023-02-15T07:21:33;10.90;50.00
32394;DHT22;18853;45.426;9.206;2023-02-15T07:23:59;10.90;50.10
32394;DHT22;18853;45.426;9.206;2023-02-15T07:26:25;10.90;49.90
32394;DHT22;18853;45.426;9.206;2023-02-15T07:28:51;10.90;49.90
32394;DHT22;18853;45.426;9.206;2023-02-15T07:31:17;10.90;49.90
32394;DHT22;18853;45.426;9.206;2023-02-15T07:33:43;10.90;49.80
32394;DHT22;18853;45.426;9.206;2023-02-15T07:36:09;11.00;49.60
32394;DHT22;18853;45.426;9.206;2023-02-15T07:38:39;11.10;49.60
32394;DHT22;18853;45.426;9.206;2023-02-15T07:41:07;11.10;49.60
32394;DHT22;18853;45.426;9.206;2023-02-15T07:43:36;11.10;49.60
32394;DHT22;18853;45.426;9.206;2023-02-15T07:46:05;11.10;49.60
32394;DHT22;18853;45.426;9.206;2023-02-15T07:48:33;11.20;49.70
32394;DHT22;18853;45.426;9.206;2023-02-15T07:51:04;11.20;49.60
32394;DHT22;18853;45.426;9.206;2023-02-15T07:53:31;11.20;49.60
32394;DHT22;18853;45.426;9.206;2023-02-15T07:56:00;11.20;49.60
32394;DHT22;18853;45.426;9.206;2023-02-15T07:58:27;11.30;51.90
32394;DHT22;18853;45.426;9.206;2023-02-15T08:01:13;11.90;50.00
32394;DHT22;18853;45.426;9.206;2023-02-15T08:03:39;11.90;49.10
32394;DHT22;18853;45.426;9.206;2023-02-15T08:06:05;11.90;49.10
32394;DHT22;18853;45.426;9.206;2023-02-15T08:08:33;11.80;49.20
32394;DHT22;18853;45.426;9.206;2023-02-15T08:14:23;11.70;49.60
32394;DHT22;18853;45.426;9.206;2023-02-15T08:19:12;11.70;49.40
32394;DHT22;18853;45.426;9.206;2023-02-15T08:21:40;11.80;49.30
32394;DHT22;18853;45.426;9.206;2023-02-15T08:24:07;11.80;49.20
32394;DHT22;18853;45.426;9.206;2023-02-15T08:26:34;11.80;49.40
32394;DHT22;18853;45.426;9.206;2023-02-15T08:29:01;11.80;49.20
32394;DHT22;18853;45.426;9.206;2023-02-15T08:31:27;11.90;49.00
32394;DHT22;18853;45.426;9.206;2023-02-15T08:33:54;11.90;48.90
32394;DHT22;18853;45.426;9.206;2023-02-15T08:36:23;11.80;49.00
32394;DHT22;18853;45.426;9.206;2023-02-15T08:38:49;11.80;49.00
32394;DHT22;18853;45.426;9.206;2023-02-15T08:43:46;11.90;48.90
32394;DHT22;18853;45.426;9.206;2023-02-15T08:46:13;12.00;48.90
32394;DHT22;18853;45.426;9.206;2023-02-15T08:48:39;12.00;48.90
32394;DHT22;18853;45.426;9.206;2023-02-15T08:51:13;12.10;48.90
32394;DHT22;18853;45.426;9.206;2023-02-15T08:53:41;12.10;49.00
32394;DHT22;18853;45.426;9.206;2023-02-15T08:56:08;12.20;49.20
32394;DHT22;18853;45.426;9.206;2023-02-15T08:58:34;12.20;49.20
32394;DHT22;18853;45.426;9.206;2023-02-15T09:01:00;12.30;49.20
32394;DHT22;18853;45.426;9.206;2023-02-15T09:03:29;12.30;49.30
32394;DHT22;18853;45.426;9.206;2023-02-15T09:05:59;12.40;49.20
32394;DHT22;18853;45.426;9.206;2023-02-15T09:08:26;12.40;49.30
32394;DHT22;18853;45.426;9.206;2023-02-15T09:10:52;12.40;49.30
32394;DHT22;18853;45.426;9.206;2023-02-15T09:13:17;12.50;49.20
32394;DHT22;18853;45.426;9.206;2023-02-15T09:15:43;12.50;49.30
32394;DHT22;18853;45.426;9.206;2023-02-15T09:18:09;12.60;49.10
32394;DHT22;18853;45.426;9.206;2023-02-15T09:20:37;12.70;49.00
32394;DHT22;18853;45.426;9.206;2023-02-15T09:23:03;12.80;48.80
32394;DHT22;18853;45.426;9.206;2023-02-15T09:25:29;12.80;48.80
32394;DHT22;18853;45.426;9.206;2023-02-15T09:27:54;12.90;48.60
32394;DHT22;18853;45.426;9.206;2023-02-15T09:30:20;12.90;48.40
32394;DHT22;18853;45.426;9.206;2023-02-15T09:32:47;13.00;48.30
32394;DHT22;18853;45.426;9.206;2023-02-15T09:35:13;13.00;48.40
32394;DHT22;18853;45.426;9.206;2023-02-15T09:37:38;13.10;48.20
32394;DHT22;18853;45.426;9.206;2023-02-15T09:40:04;13.20;48.20
32394;DHT22;18853;45.426;9.206;2023-02-15T09:42:54;13.20;48.10
32394;DHT22;18853;45.426;9.206;2023-02-15T09:45:48;13.30;48.00
32394;DHT22;18853;45.426;9.206;2023-02-15T09:48:39;13.30;48.00
32394;DHT22;18853;45.426;9.206;2023-02-15T09:53:49;13.30;48.30
32394;DHT22;18853;45.426;9.206;2023-02-15T09:56:34;13.40;48.20
32394;DHT22;18853;45.426;9.206;2023-02-15T10:07:37;13.40;48.30
32394;DHT22;18853;45.426;9.206;2023-02-15T10:21:48;13.70;47.30
32394;DHT22;18853;45.426;9.206;2023-02-15T10:27:01;13.80;46.90
32394;DHT22;18853;45.426;9.206;2023-02-15T10:29:37;13.90;47.10
32394;DHT22;18853;45.426;9.206;2023-02-15T10:32:24;13.90;47.00
32394;DHT22;18853;45.426;9.206;2023-02-15T10:40:35;14.10;46.60
32394;DHT22;18853;45.426;9.206;2023-02-15T10:43:27;14.20;46.30
32394;DHT22;18853;45.426;9.206;2023-02-15T10:54:19;14.30;45.30
32394;DHT22;18853;45.426;9.206;2023-02-15T11:07:55;14.60;44.00
32394;DHT22;18853;45.426;9.206;2023-02-15T11:10:43;14.60;43.90
32394;DHT22;18853;45.426;9.206;2023-02-15T11:13:20;14.70;43.80
32394;DHT22;18853;45.426;9.206;2023-02-15T11:16:24;14.70;43.50
32394;DHT22;18853;45.426;9.206;2023-02-15T11:18:55;14.80;43.00
32394;DHT22;18853;45.426;9.206;2023-02-15T11:21:33;14.90;43.60
32394;DHT22;18853;45.426;9.206;2023-02-15T11:24:09;15.00;43.40
32394;DHT22;18853;45.426;9.206;2023-02-15T11:26:45;15.10;43.50
32394;DHT22;18853;45.426;9.206;2023-02-15T11:31:49;15.20;43.60
32394;DHT22;18853;45.426;9.206;2023-02-15T11:34:26;15.20;43.30
32394;DHT22;18853;45.426;9.206;2023-02-15T11:36:55;15.20;43.10
32394;DHT22;18853;45.426;9.206;2023-02-15T11:39:24;15.30;43.20
32394;DHT22;18853;45.426;9.206;2023-02-15T11:41:57;15.30;43.50
32394;DHT22;18853;45.426;9.206;2023-02-15T11:44:30;15.40;43.40
32394;DHT22;18853;45.426;9.206;2023-02-15T11:46:58;15.40;43.30
32394;DHT22;18853;45.426;9.206;2023-02-15T11:49:34;15.40;43.30
32394;DHT22;18853;45.426;9.206;2023-02-15T11:52:06;15.50;43.30
32394;DHT22;18853;45.426;9.206;2023-02-15T11:54:34;15.50;43.20
32394;DHT22;18853;45.426;9.206;2023-02-15T12:02:31;15.80;42.00
32394;DHT22;18853;45.426;9.206;2023-02-15T12:05:09;15.90;42.10
32394;DHT22;18853;45.426;9.206;2023-02-15T12:07:48;16.10;41.60
32394;DHT22;18853;45.426;9.206;2023-02-15T12:10:26;16.20;40.90
32394;DHT22;18853;45.426;9.206;2023-02-15T12:15:37;16.40;40.50
32394;DHT22;18853;45.426;9.206;2023-02-15T12:18:05;16.50;40.60
32394;DHT22;18853;45.426;9.206;2023-02-15T12:20:41;16.60;40.40
32394;DHT22;18853;45.426;9.206;2023-02-15T12:23:13;16.70;39.90
32394;DHT22;18853;45.426;9.206;2023-02-15T12:25:50;16.80;39.50
32394;DHT22;18853;45.426;9.206;2023-02-15T12:30:58;17.00;38.90
32394;DHT22;18853;45.426;9.206;2023-02-15T12:33:38;17.00;39.30
32394;DHT22;18853;45.426;9.206;2023-02-15T12:36:19;17.10;38.70
32394;DHT22;18853;45.426;9.206;2023-02-15T12:41:38;17.40;38.50
32394;DHT22;18853;45.426;9.206;2023-02-15T12:44:16;17.50;39.00
32394;DHT22;18853;45.426;9.206;2023-02-15T12:47:06;17.60;38.90
32394;DHT22;18853;45.426;9.206;2023-02-15T12:49:43;17.70;38.70
32394;DHT22;18853;45.426;9.206;2023-02-15T12:54:46;18.00;38.30
32394;DHT22;18853;45.426;9.206;2023-02-15T12:57:30;18.00;37.90
32394;DHT22;18853;45.426;9.206;2023-02-15T13:00:01;18.30;37.50
32394;DHT22;18853;45.426;9.206;2023-02-15T13:02:43;18.30;37.10
32394;DHT22;18853;45.426;9.206;2023-02-15T13:07:55;18.60;37.30
32394;DHT22;18853;45.426;9.206;2023-02-15T13:10:34;18.70;36.40
32394;DHT22;18853;45.426;9.206;2023-02-15T13:13:00;18.70;36.20
32394;DHT22;18853;45.426;9.206;2023-02-15T13:15:49;18.80;36.10
32394;DHT22;18853;45.426;9.206;2023-02-15T13:18:23;19.00;34.90
32394;DHT22;18853;45.426;9.206;2023-02-15T13:20:52;19.10;35.40
32394;DHT22;18853;45.426;9.206;2023-02-15T13:23:28;19.30;35.40
32394;DHT22;18853;45.426;9.206;2023-02-15T13:25:57;19.40;34.90
32394;DHT22;18853;45.426;9.206;2023-02-15T13:28:29;19.50;35.00
32394;DHT22;18853;45.426;9.206;2023-02-15T13:30:57;19.70;34.50
32394;DHT22;18853;45.426;9.206;2023-02-15T13:33:36;19.80;34.20
32394;DHT22;18853;45.426;9.206;2023-02-15T13:36:12;19.80;33.60
32394;DHT22;18853;45.426;9.206;2023-02-15T13:41:27;19.90;33.20
32394;DHT22;18853;45.426;9.206;2023-02-15T13:47:04;20.30;32.60
32394;DHT22;18853;45.426;9.206;2023-02-15T13:52:23;20.50;32.70
32394;DHT22;18853;45.426;9.206;2023-02-15T14:00:26;21.00;31.70
32394;DHT22;18853;45.426;9.206;2023-02-15T14:06:00;21.30;30.40
32394;DHT22;18853;45.426;9.206;2023-02-15T14:11:29;21.50;30.20
32394;DHT22;18853;45.426;9.206;2023-02-15T14:19:50;21.80;30.00
32394;DHT22;18853;45.426;9.206;2023-02-15T14:25:13;22.00;29.60
32394;DHT22;18853;45.426;9.206;2023-02-15T14:30:21;22.30;28.80
32394;DHT22;18853;45.426;9.206;2023-02-15T14:32:52;22.40;28.60
32394;DHT22;18853;45.426;9.206;2023-02-15T14:35:21;22.40;28.30
32394;DHT22;18853;45.426;9.206;2023-02-15T14:40:51;22.50;27.60
32394;DHT22;18853;45.426;9.206;2023-02-15T15:02:17;23.00;26.40
32394;DHT22;18853;45.426;9.206;2023-02-15T15:04:58;23.10;27.00
32394;DHT22;18853;45.426;9.206;2023-02-15T15:07:35;23.10;26.60
32394;DHT22;18853;45.426;9.206;2023-02-15T15:10:03;23.10;27.10
32394;DHT22;18853;45.426;9.206;2023-02-15T15:15:01;23.30;26.60
32394;DHT22;18853;45.426;9.206;2023-02-15T15:22:30;23.30;26.30
32394;DHT22;18853;45.426;9.206;2023-02-15T15:41:48;23.10;26.00
32394;DHT22;18853;45.426;9.206;2023-02-15T15:49:40;23.10;26.40
32394;DHT22;18853;45.426;9.206;2023-02-15T15:52:14;23.10;26.90
32394;DHT22;18853;45.426;9.206;2023-02-15T15:54:41;23.20;26.90
32394;DHT22;18853;45.426;9.206;2023-02-15T15:57:17;23.10;26.70
32394;DHT22;18853;45.426;9.206;2023-02-15T15:59:45;23.20;26.40
32394;DHT22;18853;45.426;9.206;2023-02-15T16:02:15;23.10;26.70
32394;DHT22;18853;45.426;9.206;2023-02-15T16:04:43;23.00;27.00
32394;DHT22;18853;45.426;9.206;2023-02-15T16:10:02;22.70;26.60
32394;DHT22;18853;45.426;9.206;2023-02-15T16:12:31;22.40;26.80
32394;DHT22;18853;45.426;9.206;2023-02-15T16:14:58;22.20;27.30
32394;DHT22;18853;45.426;9.206;2023-02-15T16:17:31;22.10;27.50
32394;DHT22;18853;45.426;9.206;2023-02-15T16:20:30;21.90;27.90
32394;DHT22;18853;45.426;9.206;2023-02-15T16:28:51;21.30;29.50
32394;DHT22;18853;45.426;9.206;2023-02-15T16:31:18;21.10;29.90
32394;DHT22;18853;45.426;9.206;2023-02-15T16:33:45;21.00;30.00
32394;DHT22;18853;45.426;9.206;2023-02-15T16:36:25;20.90;30.10
32394;DHT22;18853;45.426;9.206;2023-02-15T16:43:48;20.50;30.90
32394;DHT22;18853;45.426;9.206;2023-02-15T16:46:31;20.40;30.90
32394;DHT22;18853;45.426;9.206;2023-02-15T16:49:04;20.40;30.80
32394;DHT22;18853;45.426;9.206;2023-02-15T16:51:33;20.30;30.70
32394;DHT22;18853;45.426;9.206;2023-02-15T16:54:08;20.10;31.00
32394;DHT22;18853;45.426;9.206;2023-02-15T16:56:43;20.10;31.00
32394;DHT22;18853;45.426;9.206;2023-02-15T16:59:52;20.00;31.40
32394;DHT22;18853;45.426;9.206;2023-02-15T17:02:24;19.90;31.80
32394;DHT22;18853;45.426;9.206;2023-02-15T17:07:28;19.80;32.50
32394;DHT22;18853;45.426;9.206;2023-02-15T17:09:55;19.70;32.40
32394;DHT22;18853;45.426;9.206;2023-02-15T17:12:44;19.70;32.20
32394;DHT22;18853;45.426;9.206;2023-02-15T17:15:31;19.70;32.30
32394;DHT22;18853;45.426;9.206;2023-02-15T17:18:20;19.60;32.20
32394;DHT22;18853;45.426;9.206;2023-02-15T17:20:49;19.50;32.40
32394;DHT22;18853;45.426;9.206;2023-02-15T17:25:51;19.40;32.60
32394;DHT22;18853;45.426;9.206;2023-02-15T17:28:24;19.40;32.70
32394;DHT22;18853;45.426;9.206;2023-02-15T17:30:52;19.40;32.60
32394;DHT22;18853;45.426;9.206;2023-02-15T17:33:36;19.30;33.00
32394;DHT22;18853;45.426;9.206;2023-02-15T17:36:13;19.30;33.00
32394;DHT22;18853;45.426;9.206;2023-02-15T17:41:44;19.20;33.20
32394;DHT22;18853;45.426;9.206;2023-02-15T17:44:10;19.10;33.60
32394;DHT22;18853;45.426;9.206;2023-02-15T17:46:40;19.10;33.90
32394;DHT22;18853;45.426;9.206;2023-02-15T17:49:18;19.10;34.20
32394;DHT22;18853;45.426;9.206;2023-02-15T17:51:48;19.00;34.20
32394;DHT22;18853;45.426;9.206;2023-02-15T17:54:14;19.00;34.50
32394;DHT22;18853;45.426;9.206;2023-02-15T17:57:02;19.00;34.70
32394;DHT22;18853;45.426;9.206;2023-02-15T17:59:31;18.90;34.90
32394;DHT22;18853;45.426;9.206;2023-02-15T18:01:57;18.90;34.90
32394;DHT22;18853;45.426;9.206;2023-02-15T18:04:41;18.80;34.90
32394;DHT22;18853;45.426;9.206;2023-02-15T18:07:26;18.80;34.70
32394;DHT22;18853;45.426;9.206;2023-02-15T18:10:16;18.70;34.70
32394;DHT22;18853;45.426;9.206;2023-02-15T18:13:00;18.70;34.80
32394;DHT22;18853;45.426;9.206;2023-02-15T18:15:26;18.60;35.10
32394;DHT22;18853;45.426;9.206;2023-02-15T18:17:53;18.60;35.30
32394;DHT22;18853;45.426;9.206;2023-02-15T18:20:25;18.60;35.40
32394;DHT22;18853;45.426;9.206;2023-02-15T18:22:53;18.60;35.50
32394;DHT22;18853;45.426;9.206;2023-02-15T18:25:20;18.60;35.50
32394;DHT22;18853;45.426;9.206;2023-02-15T18:27:48;18.50;35.60
32394;DHT22;18853;45.426;9.206;2023-02-15T18:30:22;18.50;35.50
32394;DHT22;18853;45.426;9.206;2023-02-15T18:32:50;18.50;35.40
32394;DHT22;18853;45.426;9.206;2023-02-15T18:35:18;18.50;35.50
32394;DHT22;18853;45.426;9.206;2023-02-15T18:37:45;18.50;35.50
32394;DHT22;18853;45.426;9.206;2023-02-15T18:40:17;18.50;35.60
32394;DHT22;18853;45.426;9.206;2023-02-15T18:42:43;18.50;36.30
32394;DHT22;18853;45.426;9.206;2023-02-15T18:47:39;18.40;36.00
32394;DHT22;18853;45.426;9.206;2023-02-15T18:50:06;18.40;35.90
32394;DHT22;18853;45.426;9.206;2023-02-15T18:52:35;18.40;35.90
32394;DHT22;18853;45.426;9.206;2023-02-15T18:55:04;18.30;35.90
32394;DHT22;18853;45.426;9.206;2023-02-15T18:57:37;18.30;35.80
32394;DHT22;18853;45.426;9.206;2023-02-15T19:00:03;18.10;35.80
32394;DHT22;18853;45.426;9.206;2023-02-15T19:02:30;18.10;36.00
32394;DHT22;18853;45.426;9.206;2023-02-15T19:04:55;18.10;35.80
32394;DHT22;18853;45.426;9.206;2023-02-15T19:07:22;18.10;36.00
32394;DHT22;18853;45.426;9.206;2023-02-15T19:09:52;18.10;36.00
32394;DHT22;18853;45.426;9.206;2023-02-15T19:12:19;18.10;36.00
32394;DHT22;18853;45.426;9.206;2023-02-15T19:14:45;18.00;36.10
32394;DHT22;18853;45.426;9.206;2023-02-15T19:17:17;18.00;36.20
32394;DHT22;18853;45.426;9.206;2023-02-15T19:19:44;18.00;36.40
32394;DHT22;18853;45.426;9.206;2023-02-15T19:22:36;17.90;36.40
32394;DHT22;18853;45.426;9.206;2023-02-15T19:25:04;17.90;37.00
32394;DHT22;18853;45.426;9.206;2023-02-15T19:27:35;17.80;37.10
32394;DHT22;18853;45.426;9.206;2023-02-15T19:30:03;17.90;37.20
32394;DHT22;18853;45.426;9.206;2023-02-15T19:32:30;17.80;37.40
32394;DHT22;18853;45.426;9.206;2023-02-15T19:34:57;17.80;37.50